Time;durP1;ratioP1;P1;durP2;ratioP2;P2;SDS_P1;SDS_P2;PMS_P1;PMS_P2;Temp;Humidity;BMP_temperature;BMP_pressure;BME280_temperature;BME280_humidity;BME280_pressure;Samples;Min_cycle;Max_cycle;Signal;HPM_P1;HPM_P2
2023/12/29 00:00:05;;;;;;;2.63;1.80;;;;;;;7.08;100.00;100402.19;4980298;28;20605;-71
2023/12/29 00:02:32;;;;;;;2.57;2.10;;;;;;;7.02;100.00;100409.94;4980695;28;20296;-72
2023/12/29 00:04:58;;;;;;;4.07;2.57;;;;;;;6.86;100.00;100395.47;4982368;28;20209;-72
2023/12/29 00:07:25;;;;;;;3.60;2.20;;;;;;;6.67;100.00;100399.28;4983055;28;20670;-71
2023/12/29 00:09:53;;;;;;;3.13;2.27;;;;;;;6.62;100.00;100394.75;4995007;23;20240;-71
2023/12/29 00:12:20;;;;;;;4.10;2.50;;;;;;;6.59;100.00;100395.53;4977989;28;20287;-75
2023/12/29 00:14:47;;;;;;;4.40;2.57;;;;;;;6.57;100.00;100398.13;4975563;28;20210;-71
2023/12/29 00:17:14;;;;;;;2.77;2.03;;;;;;;6.58;100.00;100392.03;4977320;28;20202;-73
2023/12/29 00:19:40;;;;;;;3.60;2.23;;;;;;;6.65;100.00;100390.44;4983199;28;20796;-72
2023/12/29 00:22:07;;;;;;;3.57;2.20;;;;;;;6.64;100.00;100386.03;4964001;28;20281;-71
2023/12/29 00:24:33;;;;;;;3.40;2.30;;;;;;;6.53;100.00;100369.94;4957687;28;20333;-73
2023/12/29 00:27:00;;;;;;;3.30;2.53;;;;;;;6.53;100.00;100372.59;4976709;28;20640;-75
2023/12/29 00:29:31;;;;;;;3.87;2.30;;;;;;;6.43;100.00;100365.28;4994861;28;20234;-72
2023/12/29 00:32:00;;;;;;;3.73;2.40;;;;;;;6.34;100.00;100361.47;4979038;28;20623;-74
2023/12/29 00:34:26;;;;;;;3.30;2.50;;;;;;;6.29;100.00;100362.22;4970315;28;20202;-72
2023/12/29 00:36:53;;;;;;;4.13;2.00;;;;;;;6.24;100.00;100360.28;4962501;28;20205;-70
2023/12/29 00:39:26;;;;;;;3.50;2.30;;;;;;;6.19;100.00;100357.53;4964829;28;20481;-71
2023/12/29 00:41:52;;;;;;;3.23;2.20;;;;;;;6.09;100.00;100357.22;4961599;28;20236;-72
2023/12/29 00:44:18;;;;;;;4.63;2.50;;;;;;;6.15;100.00;100350.41;4961775;28;20210;-74
2023/12/29 00:46:45;;;;;;;3.83;2.13;;;;;;;6.03;100.00;100344.78;4963925;28;20224;-70
2023/12/29 00:49:11;;;;;;;3.03;2.43;;;;;;;5.98;100.00;100348.97;4963514;28;20308;-71
2023/12/29 00:51:41;;;;;;;3.23;2.23;;;;;;;5.87;100.00;100356.50;4966499;28;20963;-70
2023/12/29 00:54:08;;;;;;;3.37;1.97;;;;;;;5.79;100.00;100357.09;4962701;28;20302;-70
2023/12/29 00:56:34;;;;;;;4.60;2.00;;;;;;;5.83;100.00;100345.84;4965162;28;20248;-71
2023/12/29 00:59:00;;;;;;;5.27;2.13;;;;;;;5.86;100.00;100359.06;4966348;28;20233;-75
2023/12/29 01:01:27;;;;;;;3.70;1.97;;;;;;;5.85;100.00;100357.28;4966609;28;20209;-73
2023/12/29 01:03:54;;;;;;;3.53;2.27;;;;;;;5.78;100.00;100352.69;4969311;28;20228;-72
2023/12/29 01:06:23;;;;;;;3.13;2.17;;;;;;;5.71;100.00;100354.25;4964334;28;20215;-72
2023/12/29 01:08:49;;;;;;;3.27;2.00;;;;;;;5.73;100.00;100360.44;4965972;28;20225;-71
2023/12/29 01:11:15;;;;;;;2.70;1.80;;;;;;;5.82;100.00;100351.94;4966058;28;20210;-72
2023/12/29 01:13:42;;;;;;;3.33;2.00;;;;;;;5.84;100.00;100342.38;4964673;28;20211;-72
2023/12/29 01:16:08;;;;;;;4.93;2.00;;;;;;;5.79;100.00;100341.34;4964502;28;20224;-71
2023/12/29 01:18:34;;;;;;;4.67;1.83;;;;;;;5.71;100.00;100340.22;4984736;28;20319;-71
2023/12/29 01:21:01;;;;;;;3.23;2.07;;;;;;;5.66;100.00;100342.69;4963966;28;20235;-72
2023/12/29 01:23:27;;;;;;;3.77;1.93;;;;;;;5.64;100.00;100339.13;4983123;28;20205;-71
2023/12/29 01:25:54;;;;;;;2.73;1.90;;;;;;;5.58;100.00;100345.03;4963766;28;20205;-71
2023/12/29 01:28:20;;;;;;;3.10;1.90;;;;;;;5.71;100.00;100334.94;4967346;28;20232;-71
2023/12/29 01:30:47;;;;;;;3.10;2.10;;;;;;;5.70;100.00;100339.31;4966222;28;20229;-72
2023/12/29 01:33:13;;;;;;;2.47;1.90;;;;;;;5.66;100.00;100326.94;4965409;28;20747;-71
2023/12/29 01:35:40;;;;;;;3.70;2.30;;;;;;;5.62;100.00;100331.19;4964073;28;20207;-73
2023/12/29 01:38:06;;;;;;;3.73;2.20;;;;;;;5.64;100.00;100328.63;4967056;28;20202;-71
2023/12/29 01:40:42;;;;;;;3.07;1.77;;;;;;;5.67;100.00;100326.09;4965230;28;20229;-71
2023/12/29 01:43:08;;;;;;;3.80;2.20;;;;;;;5.72;100.00;100328.84;4964071;28;20966;-71
2023/12/29 01:45:35;;;;;;;3.87;2.40;;;;;;;5.58;100.00;100323.13;4962218;28;20635;-73
2023/12/29 01:48:17;;;;;;;1.93;1.60;;;;;;;5.58;100.00;100325.75;4965628;28;20221;-73
2023/12/29 01:50:45;;;;;;;3.43;2.10;;;;;;;5.61;100.00;100324.16;4966518;28;20245;-72
2023/12/29 01:53:11;;;;;;;2.77;1.90;;;;;;;5.69;100.00;100318.25;4964692;28;20331;-71
2023/12/29 01:55:38;;;;;;;4.47;2.30;;;;;;;5.83;100.00;100322.19;4967511;28;20682;-72
2023/12/29 01:58:04;;;;;;;5.53;2.47;;;;;;;5.86;100.00;100312.66;4979933;28;20285;-71
2023/12/29 02:00:33;;;;;;;4.70;2.00;;;;;;;6.00;100.00;100314.84;4966888;28;21101;-71
2023/12/29 02:02:59;;;;;;;3.77;2.17;;;;;;;6.14;100.00;100306.56;4965212;28;20215;-70
2023/12/29 02:05:27;;;;;;;3.77;2.30;;;;;;;6.18;100.00;100299.63;4965384;28;20216;-74
2023/12/29 02:07:54;;;;;;;3.27;2.13;;;;;;;6.11;100.00;100290.69;4964095;28;20253;-70
2023/12/29 02:10:21;;;;;;;4.70;1.90;;;;;;;6.06;100.00;100292.28;4963793;28;20229;-74
2023/12/29 02:12:49;;;;;;;2.20;1.90;;;;;;;5.98;100.00;100285.88;4964501;28;20207;-70
2023/12/29 02:15:15;;;;;;;3.20;1.83;;;;;;;5.97;100.00;100284.09;4965394;28;20208;-74
2023/12/29 02:17:50;;;;;;;3.97;2.10;;;;;;;5.92;100.00;100283.97;4984361;28;20259;-71
2023/12/29 02:20:17;;;;;;;2.83;1.80;;;;;;;6.00;100.00;100278.94;4963255;28;20219;-70
2023/12/29 02:22:44;;;;;;;2.70;1.90;;;;;;;6.05;100.00;100282.63;4979495;28;20228;-71
2023/12/29 02:25:11;;;;;;;3.50;1.80;;;;;;;6.02;100.00;100281.66;4961104;28;20786;-70
2023/12/29 02:27:55;;;;;;;3.33;1.80;;;;;;;6.08;100.00;100274.81;4980447;28;20212;-73
2023/12/29 02:30:42;;;;;;;2.37;1.67;;;;;;;6.08;100.00;100269.56;4982468;28;20415;-73
2023/12/29 02:33:12;;;;;;;3.27;1.70;;;;;;;6.22;100.00;100277.84;4963423;28;20209;-71
2023/12/29 02:35:42;;;;;;;2.30;1.30;;;;;;;6.28;100.00;100278.91;4962169;28;20986;-71
2023/12/29 02:38:10;;;;;;;5.13;1.90;;;;;;;6.36;100.00;100287.00;4965832;28;20765;-71
2023/12/29 02:40:37;;;;;;;2.10;1.47;;;;;;;6.32;100.00;100298.28;4979129;28;20245;-71
2023/12/29 02:43:04;;;;;;;2.63;1.60;;;;;;;6.31;100.00;100295.63;4960309;28;20881;-71
2023/12/29 02:45:30;;;;;;;2.80;1.60;;;;;;;6.38;100.00;100300.19;4964160;28;20201;-71
2023/12/29 02:47:57;;;;;;;2.67;1.60;;;;;;;6.37;100.00;100303.69;4964596;28;20224;-71
2023/12/29 02:50:24;;;;;;;4.00;1.50;;;;;;;6.36;100.00;100296.63;4963714;28;20243;-73
2023/12/29 02:52:51;;;;;;;2.50;1.50;;;;;;;6.39;100.00;100309.88;4963710;28;20302;-72
2023/12/29 02:55:18;;;;;;;2.80;1.60;;;;;;;6.37;100.00;100299.31;4963339;28;20204;-72
2023/12/29 02:57:44;;;;;;;2.53;1.50;;;;;;;6.32;100.00;100305.28;4965171;28;20211;-75
2023/12/29 03:00:11;;;;;;;3.40;1.80;;;;;;;6.26;100.00;100293.75;4964760;28;22078;-72
2023/12/29 03:02:38;;;;;;;2.37;1.43;;;;;;;6.23;100.00;100304.19;4965124;28;20217;-72
2023/12/29 03:05:04;;;;;;;2.63;1.63;;;;;;;6.23;100.00;100296.28;4965511;28;21653;-71
2023/12/29 03:07:31;;;;;;;2.47;1.77;;;;;;;6.29;100.00;100301.72;4978307;28;20236;-73
2023/12/29 03:09:58;;;;;;;2.03;1.30;;;;;;;6.45;100.00;100310.97;4963695;28;20235;-73
2023/12/29 03:12:24;;;;;;;2.73;1.63;;;;;;;6.49;100.00;100293.53;4965743;28;20220;-72
2023/12/29 03:14:51;;;;;;;3.73;1.70;;;;;;;6.80;100.00;100289.97;4962229;28;20237;-71
2023/12/29 03:17:17;;;;;;;5.80;1.77;;;;;;;6.95;100.00;100287.78;4967072;28;20299;-71
2023/12/29 03:19:44;;;;;;;4.83;1.80;;;;;;;7.03;100.00;100274.78;4963650;28;20312;-73
2023/12/29 03:22:10;;;;;;;3.93;1.70;;;;;;;6.97;100.00;100272.91;4965483;28;20209;-71
2023/12/29 03:24:40;;;;;;;5.00;1.77;;;;;;;6.87;100.00;100265.63;4963788;28;20201;-72
2023/12/29 03:27:06;;;;;;;5.57;1.83;;;;;;;6.73;100.00;100261.72;4978565;28;20209;-72
2023/12/29 03:29:33;;;;;;;2.73;1.60;;;;;;;6.76;100.00;100267.94;4964697;28;20324;-71
2023/12/29 03:31:59;;;;;;;2.00;1.40;;;;;;;6.65;100.00;100263.25;4964380;28;20212;-70
2023/12/29 03:34:26;;;;;;;2.53;1.67;;;;;;;6.60;100.00;100260.50;4979269;28;20239;-70
2023/12/29 03:36:52;;;;;;;5.33;2.00;;;;;;;6.57;100.00;100263.06;4963780;28;20582;-71
2023/12/29 03:39:19;;;;;;;2.93;1.93;;;;;;;6.60;100.00;100261.41;4965353;28;20313;-71
2023/12/29 03:41:45;;;;;;;3.77;1.50;;;;;;;6.69;100.00;100254.59;4962206;28;20209;-71
2023/12/29 03:44:12;;;;;;;2.40;1.50;;;;;;;6.71;100.00;100250.25;4963733;28;20220;-71
2023/12/29 03:46:39;;;;;;;1.77;1.50;;;;;;;6.69;100.00;100246.69;4963966;28;20198;-71
2023/12/29 03:49:05;;;;;;;3.07;1.70;;;;;;;6.79;100.00;100249.59;4977934;28;20729;-71
2023/12/29 03:51:32;;;;;;;5.13;1.60;;;;;;;6.83;100.00;100258.50;4965257;28;20206;-71
2023/12/29 03:53:58;;;;;;;3.30;1.63;;;;;;;6.77;100.00;100246.03;4964224;28;20210;-74
2023/12/29 03:56:25;;;;;;;4.23;1.60;;;;;;;6.72;100.00;100245.03;4962889;28;20208;-70
2023/12/29 03:58:52;;;;;;;2.27;1.80;;;;;;;6.74;100.00;100232.81;4964731;28;20300;-71
2023/12/29 04:01:19;;;;;;;3.87;1.70;;;;;;;6.75;100.00;100229.31;4963799;28;20214;-73
2023/12/29 04:03:46;;;;;;;2.83;1.40;;;;;;;6.72;100.00;100233.63;4963756;28;20232;-71
2023/12/29 04:06:12;;;;;;;4.70;1.47;;;;;;;6.72;100.00;100228.34;4977025;28;20831;-75
2023/12/29 04:08:39;;;;;;;3.33;1.40;;;;;;;6.67;100.00;100219.47;4964909;28;20225;-71
2023/12/29 04:11:06;;;;;;;2.27;1.37;;;;;;;6.56;100.00;100227.06;4976963;28;20208;-70
2023/12/29 04:13:32;;;;;;;2.47;1.27;;;;;;;6.58;100.00;100220.09;4964354;28;20215;-70
2023/12/29 04:15:59;;;;;;;2.70;1.40;;;;;;;6.63;100.00;100221.13;4963020;28;20282;-73
2023/12/29 04:18:25;;;;;;;2.70;1.50;;;;;;;6.71;100.00;100231.84;4963968;28;20685;-70
2023/12/29 04:20:52;;;;;;;3.27;1.83;;;;;;;6.66;100.00;100226.47;4962258;28;20230;-73
2023/12/29 04:23:18;;;;;;;3.47;1.60;;;;;;;6.70;100.00;100220.44;4965319;28;20678;-70
2023/12/29 04:25:45;;;;;;;2.47;1.70;;;;;;;6.65;100.00;100224.69;4966195;28;20205;-71
2023/12/29 04:28:12;;;;;;;4.67;2.17;;;;;;;6.73;100.00;100228.41;4968871;28;20205;-71
2023/12/29 04:30:38;;;;;;;1.87;1.63;;;;;;;6.76;100.00;100231.09;4967084;28;20557;-70
2023/12/29 04:33:05;;;;;;;2.80;1.80;;;;;;;6.80;100.00;100240.84;4966902;28;20206;-72
2023/12/29 04:35:31;;;;;;;4.00;1.63;;;;;;;7.00;100.00;100244.00;4967988;28;20209;-72
2023/12/29 04:37:58;;;;;;;3.10;1.47;;;;;;;7.26;100.00;100235.88;4966858;28;20672;-72
2023/12/29 04:40:24;;;;;;;3.83;1.63;;;;;;;7.29;100.00;100242.09;4967146;28;20229;-70
2023/12/29 04:42:51;;;;;;;3.00;1.60;;;;;;;7.33;100.00;100237.81;4966370;28;20214;-72
2023/12/29 04:45:17;;;;;;;6.70;2.20;;;;;;;7.48;100.00;100244.31;4966586;28;20229;-72
2023/12/29 04:47:44;;;;;;;3.30;1.70;;;;;;;7.61;100.00;100247.25;4966895;28;20206;-71
2023/12/29 04:50:10;;;;;;;5.80;1.90;;;;;;;7.69;100.00;100246.56;4966065;28;20244;-71
2023/12/29 04:52:37;;;;;;;3.37;1.90;;;;;;;7.67;100.00;100240.38;4965982;28;20559;-71
2023/12/29 04:55:03;;;;;;;2.67;1.70;;;;;;;7.72;100.00;100236.09;4966545;28;20426;-71
2023/12/29 04:57:30;;;;;;;5.37;1.93;;;;;;;7.77;100.00;100233.56;4966639;28;20635;-71
2023/12/29 04:59:56;;;;;;;3.07;1.60;;;;;;;7.80;100.00;100230.97;4979953;28;20225;-70
2023/12/29 05:02:23;;;;;;;4.47;1.73;;;;;;;7.78;100.00;100215.13;4965691;28;20419;-72
2023/12/29 05:04:49;;;;;;;2.17;1.57;;;;;;;7.70;100.00;100211.44;4965591;28;20206;-71
2023/12/29 05:07:16;;;;;;;3.00;1.80;;;;;;;7.56;100.00;100212.84;4967836;28;20213;-72
2023/12/29 05:09:42;;;;;;;2.70;1.90;;;;;;;7.42;100.00;100223.09;4967692;28;20747;-71
2023/12/29 05:12:09;;;;;;;2.33;1.77;;;;;;;7.44;100.00;100216.13;4965473;28;20725;-72
2023/12/29 05:14:35;;;;;;;2.37;1.70;;;;;;;7.48;100.00;100220.59;4965467;28;20569;-70
2023/12/29 05:17:02;;;;;;;2.70;1.73;;;;;;;7.61;100.00;100218.25;4966381;28;20210;-70
2023/12/29 05:19:28;;;;;;;3.10;1.63;;;;;;;7.72;100.00;100222.91;4965738;28;20237;-74
2023/12/29 05:21:55;;;;;;;3.70;1.60;;;;;;;7.75;100.00;100204.53;4968487;28;20678;-70
2023/12/29 05:24:21;;;;;;;2.30;1.50;;;;;;;7.73;100.00;100206.25;4966254;28;20208;-70
2023/12/29 05:26:48;;;;;;;2.10;1.50;;;;;;;7.66;100.00;100206.97;4984785;28;20214;-71
2023/12/29 05:29:14;;;;;;;2.43;1.60;;;;;;;7.48;100.00;100215.31;4966288;28;20231;-70
2023/12/29 05:31:40;;;;;;;2.67;1.40;;;;;;;7.42;100.00;100209.03;4970617;28;20202;-73
2023/12/29 05:34:07;;;;;;;4.53;1.50;;;;;;;7.44;100.00;100231.03;4975568;28;20216;-70
2023/12/29 05:36:37;;;;;;;2.43;1.63;;;;;;;7.54;100.00;100219.84;4971369;28;20666;-71
2023/12/29 05:39:04;;;;;;;2.33;1.60;;;;;;;7.60;100.00;100219.09;4972682;28;20217;-71
2023/12/29 05:41:30;;;;;;;2.83;1.50;;;;;;;7.67;100.00;100211.38;4971726;28;20226;-70
2023/12/29 05:43:57;;;;;;;2.50;1.57;;;;;;;7.78;100.00;100211.59;4972587;28;20225;-71
2023/12/29 05:46:24;;;;;;;2.13;1.17;;;;;;;7.90;100.00;100213.59;4972121;28;20205;-71
2023/12/29 05:48:52;;;;;;;1.80;1.50;;;;;;;7.91;100.00;100202.19;4971573;28;20221;-71
2023/12/29 05:51:19;;;;;;;3.03;1.27;;;;;;;7.96;100.00;100209.34;4971548;28;20213;-70
2023/12/29 05:53:46;;;;;;;2.20;1.57;;;;;;;8.09;100.00;100216.69;4981370;28;20209;-72
2023/12/29 05:56:14;;;;;;;2.50;1.43;;;;;;;8.10;100.00;100209.66;4971195;28;20658;-71
2023/12/29 05:58:43;;;;;;;3.43;1.70;;;;;;;8.11;100.00;100209.69;4973015;28;20294;-72
2023/12/29 06:01:10;;;;;;;5.27;1.60;;;;;;;8.16;100.00;100213.28;4971005;28;20216;-72
2023/12/29 06:03:37;;;;;;;4.30;1.70;;;;;;;8.19;100.00;100207.19;4975463;28;20385;-71
2023/12/29 06:06:04;;;;;;;3.20;1.60;;;;;;;8.25;100.00;100204.66;4970705;28;20661;-71
2023/12/29 06:08:31;;;;;;;2.27;1.80;;;;;;;8.30;100.00;100200.38;4974355;28;20207;-71
2023/12/29 06:10:57;;;;;;;2.00;1.60;;;;;;;8.36;100.00;100204.91;4998109;23;20235;-70
2023/12/29 06:13:24;;;;;;;4.53;1.80;;;;;;;8.34;100.00;100198.72;4990974;28;20216;-71
2023/12/29 06:15:50;;;;;;;2.30;1.60;;;;;;;8.34;100.00;100199.59;4988432;28;20209;-71
2023/12/29 06:18:17;;;;;;;3.50;1.70;;;;;;;8.35;100.00;100204.00;4986094;28;20282;-71
2023/12/29 06:20:43;;;;;;;3.77;1.73;;;;;;;8.39;100.00;100197.94;4977402;28;20219;-71
2023/12/29 06:23:10;;;;;;;2.20;1.60;;;;;;;8.46;100.00;100207.78;4970928;28;20216;-70
2023/12/29 06:25:39;;;;;;;2.73;1.70;;;;;;;8.49;100.00;100212.22;4980998;28;20208;-70
2023/12/29 06:28:06;;;;;;;2.10;1.57;;;;;;;8.52;100.00;100221.94;4970252;28;20583;-70
2023/12/29 06:30:33;;;;;;;3.17;1.70;;;;;;;8.73;100.00;100220.56;4970547;28;20223;-71
2023/12/29 06:33:00;;;;;;;3.00;1.50;;;;;;;8.66;100.00;100223.97;4968266;28;20699;-71
2023/12/29 06:35:26;;;;;;;2.23;1.43;;;;;;;8.68;100.00;100223.97;4969771;28;20204;-71
2023/12/29 06:37:53;;;;;;;4.03;1.80;;;;;;;8.72;100.00;100226.72;4986651;28;20215;-71
2023/12/29 06:40:19;;;;;;;2.60;1.93;;;;;;;8.75;100.00;100215.31;4969833;28;20218;-71
2023/12/29 06:42:46;;;;;;;2.57;1.70;;;;;;;8.76;100.00;100231.19;4997418;28;20259;-71
2023/12/29 06:45:12;;;;;;;3.80;1.80;;;;;;;8.81;100.00;100231.28;4977253;28;20204;-71
2023/12/29 06:47:39;;;;;;;5.40;2.00;;;;;;;8.81;100.00;100222.47;4971566;28;20665;-71
2023/12/29 06:50:06;;;;;;;2.53;1.77;;;;;;;8.81;100.00;100219.84;4976778;28;20240;-71
2023/12/29 06:52:34;;;;;;;2.20;1.70;;;;;;;8.81;100.00;100226.00;4995947;28;20255;-71
2023/12/29 06:55:01;;;;;;;2.03;1.40;;;;;;;8.91;100.00;100220.00;4981938;28;20198;-71
2023/12/29 06:57:28;;;;;;;2.33;1.43;;;;;;;8.94;100.00;100216.53;4980266;28;20301;-71
2023/12/29 06:59:54;;;;;;;2.60;1.67;;;;;;;8.98;100.00;100210.44;4946526;28;20307;-72
2023/12/29 07:02:21;;;;;;;4.57;1.80;;;;;;;9.02;100.00;100218.44;4964073;28;20201;-71
2023/12/29 07:04:47;;;;;;;4.10;1.83;;;;;;;9.05;100.00;100215.84;4972747;28;20297;-72
2023/12/29 07:07:14;;;;;;;4.37;2.00;;;;;;;9.11;100.00;100215.94;4968110;28;20294;-72
2023/12/29 07:09:40;;;;;;;4.17;2.00;;;;;;;9.20;100.00;100215.19;4976871;28;20230;-72
2023/12/29 07:12:07;;;;;;;4.03;1.93;;;;;;;9.19;100.00;100213.41;4975166;28;20251;-72
2023/12/29 07:14:35;;;;;;;4.97;1.70;;;;;;;9.22;100.00;100220.53;4972355;28;20254;-72
2023/12/29 07:17:02;;;;;;;3.97;1.90;;;;;;;9.24;100.00;100219.69;4975194;28;20618;-72
2023/12/29 07:19:36;;;;;;;2.30;1.80;;;;;;;9.32;100.00;100218.06;4993442;28;20327;-72
2023/12/29 07:22:05;;;;;;;2.80;1.73;;;;;;;9.35;100.00;100219.84;4982654;28;20232;-72
2023/12/29 07:24:32;;;;;;;3.47;1.77;;;;;;;9.34;100.00;100218.97;4969611;28;20293;-72
2023/12/29 07:26:59;;;;;;;4.00;1.80;;;;;;;9.33;100.00;100211.00;4976740;28;20301;-72
2023/12/29 07:29:25;;;;;;;5.07;1.90;;;;;;;9.33;100.00;100206.63;4988077;28;20278;-71
2023/12/29 07:31:52;;;;;;;2.23;1.70;;;;;;;9.33;100.00;100216.31;4981407;28;20207;-71
2023/12/29 07:34:19;;;;;;;1.70;1.53;;;;;;;9.33;100.00;100218.94;4975945;28;20237;-72
2023/12/29 07:36:46;;;;;;;2.00;1.40;;;;;;;9.37;100.00;100219.00;4976913;28;20634;-71
2023/12/29 07:39:13;;;;;;;2.17;1.93;;;;;;;9.34;100.00;100223.38;4973495;28;23230;-71
2023/12/29 07:41:41;;;;;;;3.67;1.70;;;;;;;9.35;100.00;100227.78;4989584;28;20605;-71
2023/12/29 07:44:10;;;;;;;1.97;1.40;;;;;;;9.34;100.00;100233.94;4981684;28;20215;-72
2023/12/29 07:46:38;;;;;;;2.43;1.57;;;;;;;9.37;100.00;100239.25;4975870;28;20204;-72
2023/12/29 07:49:05;;;;;;;5.20;1.63;;;;;;;9.38;100.00;100241.03;4975085;28;20226;-72
2023/12/29 07:51:32;;;;;;;3.17;1.70;;;;;;;9.46;100.00;100239.41;4969083;28;20596;-72
2023/12/29 07:53:58;;;;;;;3.50;1.47;;;;;;;9.47;100.00;100227.06;4976560;28;20257;-72
2023/12/29 07:56:25;;;;;;;2.30;1.43;;;;;;;9.47;100.00;100235.00;4977237;28;20208;-72
2023/12/29 07:58:51;;;;;;;3.67;1.57;;;;;;;9.54;100.00;100236.88;4973012;28;20213;-72
2023/12/29 08:01:18;;;;;;;2.13;1.60;;;;;;;9.49;100.00;100243.84;4976374;28;20224;-72
2023/12/29 08:03:45;;;;;;;2.70;1.43;;;;;;;9.50;100.00;100241.22;4975249;28;20594;-72
2023/12/29 08:06:12;;;;;;;3.73;1.60;;;;;;;9.59;100.00;100240.47;4982855;28;20216;-72
2023/12/29 08:08:39;;;;;;;2.03;1.40;;;;;;;9.57;100.00;100239.56;4978789;28;20208;-72
2023/12/29 08:11:05;;;;;;;2.67;1.57;;;;;;;9.57;100.00;100245.72;4971544;28;20261;-72
2023/12/29 08:13:34;;;;;;;5.87;1.63;;;;;;;9.60;100.00;100234.31;4978867;28;20278;-72
2023/12/29 08:16:00;;;;;;;3.87;1.40;;;;;;;9.63;100.00;100234.38;4978794;28;20584;-69
2023/12/29 08:18:27;;;;;;;3.83;1.80;;;;;;;9.67;100.00;100239.72;4977976;28;20677;-72
2023/12/29 08:20:54;;;;;;;2.37;1.37;;;;;;;9.69;100.00;100238.00;4983177;28;20246;-73
2023/12/29 08:23:20;;;;;;;2.50;1.40;;;;;;;9.70;100.00;100237.13;4976901;28;20227;-72
2023/12/29 08:25:47;;;;;;;2.23;1.47;;;;;;;9.71;100.00;100241.56;4977707;28;20211;-72
2023/12/29 08:28:13;;;;;;;2.87;1.50;;;;;;;9.76;100.00;100249.56;5001151;28;20215;-70
2023/12/29 08:30:40;;;;;;;1.70;1.30;;;;;;;9.74;100.00;100253.94;4970290;28;20227;-70
2023/12/29 08:33:07;;;;;;;1.80;1.07;;;;;;;9.80;100.00;100250.47;4971129;28;20683;-70
2023/12/29 08:35:33;;;;;;;2.87;1.50;;;;;;;9.81;100.00;100254.91;4969740;28;20208;-70
2023/12/29 08:37:59;;;;;;;2.00;1.30;;;;;;;9.82;100.00;100251.38;4984514;28;20232;-70
2023/12/29 08:40:26;;;;;;;5.17;1.80;;;;;;;9.83;100.00;100239.94;4970847;28;20217;-70
2023/12/29 08:42:53;;;;;;;3.33;1.80;;;;;;;9.87;100.00;100244.41;4973535;28;20263;-70
2023/12/29 08:45:19;;;;;;;2.97;1.60;;;;;;;9.89;100.00;100235.63;4965316;28;20236;-73
2023/12/29 08:47:46;;;;;;;4.20;1.60;;;;;;;9.94;100.00;100238.31;4964462;28;20202;-71
2023/12/29 08:50:12;;;;;;;2.53;1.40;;;;;;;9.99;100.00;100240.16;4978426;28;20239;-71
2023/12/29 08:52:41;;;;;;;3.57;1.30;;;;;;;10.04;100.00;100245.53;4975117;28;20230;-71
2023/12/29 08:55:09;;;;;;;2.30;1.30;;;;;;;10.03;100.00;100241.13;4980612;28;20587;-70
2023/12/29 08:57:36;;;;;;;4.30;1.50;;;;;;;10.05;100.00;100236.72;4969360;28;20240;-69
2023/12/29 09:00:03;;;;;;;2.50;1.50;;;;;;;10.08;100.00;100241.16;4971758;28;20709;-69
2023/12/29 09:02:29;;;;;;;4.47;1.20;;;;;;;10.16;100.00;100237.75;4971157;28;20284;-70
2023/12/29 09:04:56;;;;;;;3.40;1.47;;;;;;;10.20;100.00;100236.03;4988488;28;20243;-70
2023/12/29 09:07:22;;;;;;;2.93;1.30;;;;;;;10.28;100.00;100242.31;4994465;28;20287;-70
2023/12/29 09:09:49;;;;;;;2.57;1.40;;;;;;;10.22;100.00;100235.19;4978699;28;20234;-70
2023/12/29 09:12:15;;;;;;;4.67;1.37;;;;;;;10.28;100.00;100229.09;4978345;28;20208;-71
2023/12/29 09:14:42;;;;;;;1.27;1.13;;;;;;;10.26;100.00;100228.19;4986729;28;20703;-73
2023/12/29 09:17:08;;;;;;;2.93;1.50;;;;;;;10.28;100.00;100229.97;4977675;28;20215;-72
2023/12/29 09:19:36;;;;;;;2.60;1.20;;;;;;;10.27;100.00;100230.84;4976372;28;20712;-71
2023/12/29 09:22:06;;;;;;;1.67;1.30;;;;;;;10.26;100.00;100229.06;4975648;28;20209;-72
2023/12/29 09:24:32;;;;;;;1.90;1.37;;;;;;;10.29;100.00;100233.50;4983280;28;20246;-72
2023/12/29 09:26:59;;;;;;;2.63;1.40;;;;;;;10.26;100.00;100237.03;4981993;28;20212;-72
2023/12/29 09:29:25;;;;;;;2.53;1.40;;;;;;;10.25;100.00;100237.88;4975433;28;20198;-71
2023/12/29 09:31:51;;;;;;;1.60;1.40;;;;;;;10.23;100.00;100242.28;4975644;28;20207;-71
2023/12/29 09:34:18;;;;;;;4.33;1.40;;;;;;;10.24;100.00;100245.81;4977261;28;20232;-72
2023/12/29 09:36:47;;;;;;;2.63;1.67;;;;;;;10.22;100.00;100245.78;4980469;28;20207;-71
2023/12/29 09:39:13;;;;;;;2.13;1.20;;;;;;;10.24;100.00;100232.56;4983638;28;20281;-72
2023/12/29 09:41:45;;;;;;;3.63;1.20;;;;;;;10.27;100.00;100244.09;4973585;28;20220;-72
2023/12/29 09:44:15;;;;;;;4.37;1.40;;;;;;;10.22;100.00;100248.44;4972618;28;20218;-72
2023/12/29 09:46:43;;;;;;;3.50;1.50;;;;;;;10.22;100.00;100253.72;4980851;28;20209;-72
2023/12/29 09:49:11;;;;;;;2.60;1.30;;;;;;;10.20;100.00;100257.19;4967600;28;20205;-72
2023/12/29 09:51:38;;;;;;;1.97;1.07;;;;;;;10.20;100.00;100255.47;4981576;28;20573;-72
2023/12/29 09:54:04;;;;;;;2.63;1.70;;;;;;;10.23;100.00;100259.91;4976334;28;20688;-72
2023/12/29 09:56:31;;;;;;;2.17;1.30;;;;;;;10.27;100.00;100259.06;4972324;28;20287;-71
2023/12/29 09:58:58;;;;;;;1.83;1.47;;;;;;;10.28;100.00;100256.44;4974524;28;20701;-72
2023/12/29 10:01:29;;;;;;;1.27;1.00;;;;;;;10.29;100.00;100265.28;4989871;28;20214;-72
2023/12/29 10:03:55;;;;;;;2.70;1.00;;;;;;;10.30;100.00;100273.25;4973363;28;20715;-71
2023/12/29 10:06:25;;;;;;;4.87;1.00;;;;;;;10.29;100.00;100257.34;4972959;28;20778;-71
2023/12/29 10:08:53;;;;;;;2.77;1.13;;;;;;;10.33;100.00;100261.78;4971774;28;20216;-71
2023/12/29 10:11:24;;;;;;;1.33;1.20;;;;;;;10.36;100.00;100260.06;4969796;28;20312;-69
2023/12/29 10:13:54;;;;;;;2.43;1.00;;;;;;;10.37;100.00;100266.25;4977026;28;20520;-70
2023/12/29 10:16:41;;;;;;;4.37;1.00;;;;;;;10.37;100.00;100263.59;4977843;28;20205;-73
2023/12/29 10:19:39;;;;;;;2.30;1.10;;;;;;;10.40;100.00;100260.09;4973970;28;20210;-72
2023/12/29 10:22:24;;;;;;;1.20;1.07;;;;;;;10.45;100.00;100261.06;4974420;28;20198;-72
2023/12/29 10:24:51;;;;;;;2.57;1.10;;;;;;;10.44;100.00;100270.78;4970370;28;20428;-72
2023/12/29 10:27:18;;;;;;;2.03;1.20;;;;;;;10.49;100.00;100266.44;4981957;28;20204;-72
2023/12/29 10:29:44;;;;;;;1.73;0.90;;;;;;;10.51;100.00;100264.69;4978138;28;20224;-72
2023/12/29 10:32:10;;;;;;;3.40;1.10;;;;;;;10.56;100.00;100267.38;4970734;28;20205;-70
2023/12/29 10:34:37;;;;;;;3.53;1.10;;;;;;;10.57;100.00;100262.09;4976760;28;20320;-71
2023/12/29 10:37:08;;;;;;;2.63;1.33;;;;;;;10.55;100.00;100260.31;4976259;28;20207;-71
2023/12/29 10:39:36;;;;;;;2.73;1.00;;;;;;;10.60;100.00;100270.06;4971514;28;20836;-70
2023/12/29 10:42:08;;;;;;;1.77;1.17;;;;;;;10.62;100.00;100262.16;4967428;28;20998;-71
2023/12/29 10:44:35;;;;;;;3.33;1.57;;;;;;;10.67;100.00;100252.50;4969531;28;20211;-71
2023/12/29 10:47:12;;;;;;;2.50;1.10;;;;;;;10.76;100.00;100262.28;4972366;28;20212;-69
2023/12/29 10:49:40;;;;;;;2.30;1.20;;;;;;;10.74;100.00;100259.63;4960441;28;20225;-72
2023/12/29 10:52:14;;;;;;;2.30;1.20;;;;;;;10.72;100.00;100258.72;4983939;28;20712;-73
2023/12/29 10:54:42;;;;;;;3.37;1.13;;;;;;;10.71;100.00;100261.34;4967586;28;20613;-73
2023/12/29 10:57:12;;;;;;;2.97;1.00;;;;;;;10.72;100.00;100263.13;4970820;28;20634;-71
2023/12/29 10:59:39;;;;;;;1.40;1.03;;;;;;;10.66;100.00;100261.31;4970489;28;20223;-71
2023/12/29 11:02:08;;;;;;;2.13;1.13;;;;;;;10.66;100.00;100259.53;4970361;28;20207;-71
2023/12/29 11:04:35;;;;;;;6.10;1.30;;;;;;;10.65;100.00;100254.22;4966941;28;20244;-71
2023/12/29 11:07:01;;;;;;;1.30;1.00;;;;;;;10.62;100.00;100257.75;4967844;28;20202;-71
2023/12/29 11:09:29;;;;;;;3.60;1.30;;;;;;;10.62;100.00;100262.16;4962825;28;20785;-71
2023/12/29 11:12:03;;;;;;;6.33;1.50;;;;;;;10.62;100.00;100252.44;4981479;28;20229;-71
2023/12/29 11:14:30;;;;;;;4.90;1.30;;;;;;;10.64;100.00;100253.34;4976744;28;20286;-69
2023/12/29 11:17:01;;;;;;;2.90;1.10;;;;;;;10.61;100.00;100252.44;4967644;28;20626;-69
2023/12/29 11:19:27;;;;;;;2.23;1.47;;;;;;;10.54;100.00;100247.94;4965342;28;20229;-69
2023/12/29 11:21:56;;;;;;;1.90;1.10;;;;;;;10.55;100.00;100262.94;4966053;28;20757;-73
2023/12/29 11:24:23;;;;;;;2.73;1.10;;;;;;;10.56;100.00;100254.13;4974920;28;20906;-74